sensor_id;sensor_type;location;lat;lon;timestamp;temperature;humidity
81524;DHT22;70954;49.500;10.416;2024-02-16T00:00:27;11.40;64.70
81524;DHT22;70954;49.500;10.416;2024-02-16T00:02:53;11.40;64.70
81524;DHT22;70954;49.500;10.416;2024-02-16T00:05:18;11.40;64.80
81524;DHT22;70954;49.500;10.416;2024-02-16T00:07:44;11.30;64.80
81524;DHT22;70954;49.500;10.416;2024-02-16T00:10:09;11.40;64.90
81524;DHT22;70954;49.500;10.416;2024-02-16T00:12:35;11.40;65.00
81524;DHT22;70954;49.500;10.416;2024-02-16T00:15:02;11.40;65.00
81524;DHT22;70954;49.500;10.416;2024-02-16T00:17:27;11.40;65.00
81524;DHT22;70954;49.500;10.416;2024-02-16T00:19:56;11.40;65.10
81524;DHT22;70954;49.500;10.416;2024-02-16T00:22:21;11.40;65.10
81524;DHT22;70954;49.500;10.416;2024-02-16T00:24:47;11.40;65.10
81524;DHT22;70954;49.500;10.416;2024-02-16T00:27:13;11.40;65.00
81524;DHT22;70954;49.500;10.416;2024-02-16T00:29:39;11.40;65.00
81524;DHT22;70954;49.500;10.416;2024-02-16T00:32:05;11.40;65.00
81524;DHT22;70954;49.500;10.416;2024-02-16T00:34:30;11.40;65.10
81524;DHT22;70954;49.500;10.416;2024-02-16T00:36:55;11.40;65.10
81524;DHT22;70954;49.500;10.416;2024-02-16T00:39:21;11.40;65.10
81524;DHT22;70954;49.500;10.416;2024-02-16T00:41:46;11.40;65.10
81524;DHT22;70954;49.500;10.416;2024-02-16T00:44:12;11.40;65.10
81524;DHT22;70954;49.500;10.416;2024-02-16T00:46:37;11.40;65.10
81524;DHT22;70954;49.500;10.416;2024-02-16T00:49:03;11.40;65.10
81524;DHT22;70954;49.500;10.416;2024-02-16T00:51:28;11.40;65.10
81524;DHT22;70954;49.500;10.416;2024-02-16T00:53:53;11.40;65.10
81524;DHT22;70954;49.500;10.416;2024-02-16T00:56:19;11.40;65.10
81524;DHT22;70954;49.500;10.416;2024-02-16T00:58:44;11.40;65.10
81524;DHT22;70954;49.500;10.416;2024-02-16T01:01:10;11.40;65.10
81524;DHT22;70954;49.500;10.416;2024-02-16T01:03:36;11.40;65.10
81524;DHT22;70954;49.500;10.416;2024-02-16T01:06:01;11.40;65.10
81524;DHT22;70954;49.500;10.416;2024-02-16T01:08:27;11.40;65.10
81524;DHT22;70954;49.500;10.416;2024-02-16T01:10:52;11.40;65.20
81524;DHT22;70954;49.500;10.416;2024-02-16T01:13:17;11.40;65.20
81524;DHT22;70954;49.500;10.416;2024-02-16T01:15:44;11.40;65.20
81524;DHT22;70954;49.500;10.416;2024-02-16T01:18:09;11.40;65.10
81524;DHT22;70954;49.500;10.416;2024-02-16T01:20:34;11.40;65.10
81524;DHT22;70954;49.500;10.416;2024-02-16T01:23:00;11.40;65.10
81524;DHT22;70954;49.500;10.416;2024-02-16T01:25:25;11.40;65.10
81524;DHT22;70954;49.500;10.416;2024-02-16T01:27:51;11.40;65.20
81524;DHT22;70954;49.500;10.416;2024-02-16T01:30:16;11.40;65.20
81524;DHT22;70954;49.500;10.416;2024-02-16T01:32:42;11.40;65.20
81524;DHT22;70954;49.500;10.416;2024-02-16T01:35:07;11.40;65.20
81524;DHT22;70954;49.500;10.416;2024-02-16T01:37:33;11.40;65.20
81524;DHT22;70954;49.500;10.416;2024-02-16T01:39:58;11.40;65.30
81524;DHT22;70954;49.500;10.416;2024-02-16T01:42:24;11.40;65.10
81524;DHT22;70954;49.500;10.416;2024-02-16T01:44:50;11.40;65.10
81524;DHT22;70954;49.500;10.416;2024-02-16T01:47:16;11.40;65.10
81524;DHT22;70954;49.500;10.416;2024-02-16T01:49:44;11.40;65.20
81524;DHT22;70954;49.500;10.416;2024-02-16T01:52:09;11.40;65.10
81524;DHT22;70954;49.500;10.416;2024-02-16T01:54:35;11.30;65.10
81524;DHT22;70954;49.500;10.416;2024-02-16T01:57:00;11.30;65.20
81524;DHT22;70954;49.500;10.416;2024-02-16T01:59:26;11.30;65.20
81524;DHT22;70954;49.500;10.416;2024-02-16T02:01:52;11.30;65.20
81524;DHT22;70954;49.500;10.416;2024-02-16T02:04:17;11.30;65.30
81524;DHT22;70954;49.500;10.416;2024-02-16T02:06:43;11.30;65.30
81524;DHT22;70954;49.500;10.416;2024-02-16T02:09:08;11.30;65.40
81524;DHT22;70954;49.500;10.416;2024-02-16T02:11:34;11.30;65.40
81524;DHT22;70954;49.500;10.416;2024-02-16T02:13:59;11.30;65.40
81524;DHT22;70954;49.500;10.416;2024-02-16T02:16:24;11.20;65.50
81524;DHT22;70954;49.500;10.416;2024-02-16T02:18:50;11.20;65.50
81524;DHT22;70954;49.500;10.416;2024-02-16T02:21:15;11.20;65.50
81524;DHT22;70954;49.500;10.416;2024-02-16T02:23:41;11.10;65.60
81524;DHT22;70954;49.500;10.416;2024-02-16T02:26:06;11.10;65.60
81524;DHT22;70954;49.500;10.416;2024-02-16T02:28:32;11.20;65.70
81524;DHT22;70954;49.500;10.416;2024-02-16T02:30:57;11.10;65.70
81524;DHT22;70954;49.500;10.416;2024-02-16T02:33:23;11.10;65.80
81524;DHT22;70954;49.500;10.416;2024-02-16T02:35:48;11.10;65.80
81524;DHT22;70954;49.500;10.416;2024-02-16T02:38:14;11.10;65.90
81524;DHT22;70954;49.500;10.416;2024-02-16T02:40:39;11.10;65.80
81524;DHT22;70954;49.500;10.416;2024-02-16T02:43:04;11.10;65.90
81524;DHT22;70954;49.500;10.416;2024-02-16T02:45:30;11.10;65.90
81524;DHT22;70954;49.500;10.416;2024-02-16T02:47:55;11.10;65.90
81524;DHT22;70954;49.500;10.416;2024-02-16T02:50:21;11.10;65.90
81524;DHT22;70954;49.500;10.416;2024-02-16T02:52:46;11.10;65.90
81524;DHT22;70954;49.500;10.416;2024-02-16T02:55:12;11.10;65.90
81524;DHT22;70954;49.500;10.416;2024-02-16T02:57:37;11.10;66.00
81524;DHT22;70954;49.500;10.416;2024-02-16T03:00:04;11.10;66.00
81524;DHT22;70954;49.500;10.416;2024-02-16T03:02:30;11.10;66.00
81524;DHT22;70954;49.500;10.416;2024-02-16T03:04:55;11.10;66.00
81524;DHT22;70954;49.500;10.416;2024-02-16T03:07:21;11.10;66.10
81524;DHT22;70954;49.500;10.416;2024-02-16T03:09:46;11.10;66.10
81524;DHT22;70954;49.500;10.416;2024-02-16T03:12:12;11.10;66.20
81524;DHT22;70954;49.500;10.416;2024-02-16T03:14:37;11.10;66.20
81524;DHT22;70954;49.500;10.416;2024-02-16T03:17:03;11.10;66.20
81524;DHT22;70954;49.500;10.416;2024-02-16T03:19:28;11.10;66.30
81524;DHT22;70954;49.500;10.416;2024-02-16T03:21:54;11.10;66.30
81524;DHT22;70954;49.500;10.416;2024-02-16T03:24:19;11.10;66.30
81524;DHT22;70954;49.500;10.416;2024-02-16T03:26:45;11.10;66.30
81524;DHT22;70954;49.500;10.416;2024-02-16T03:29:10;11.10;66.30
81524;DHT22;70954;49.500;10.416;2024-02-16T03:31:35;11.10;66.40
81524;DHT22;70954;49.500;10.416;2024-02-16T03:34:01;11.10;66.40
81524;DHT22;70954;49.500;10.416;2024-02-16T03:36:26;11.10;66.50
81524;DHT22;70954;49.500;10.416;2024-02-16T03:38:52;11.10;66.50
81524;DHT22;70954;49.500;10.416;2024-02-16T03:41:22;11.10;66.50
81524;DHT22;70954;49.500;10.416;2024-02-16T03:43:47;11.10;66.50
81524;DHT22;70954;49.500;10.416;2024-02-16T03:46:13;11.10;66.50
81524;DHT22;70954;49.500;10.416;2024-02-16T03:48:39;11.10;66.50
81524;DHT22;70954;49.500;10.416;2024-02-16T03:51:04;11.10;66.50
81524;DHT22;70954;49.500;10.416;2024-02-16T03:53:30;11.10;66.50
81524;DHT22;70954;49.500;10.416;2024-02-16T03:55:55;11.10;66.50
81524;DHT22;70954;49.500;10.416;2024-02-16T03:58:21;11.10;66.50
81524;DHT22;70954;49.500;10.416;2024-02-16T04:00:47;11.10;66.50
81524;DHT22;70954;49.500;10.416;2024-02-16T04:03:12;11.10;66.50
81524;DHT22;70954;49.500;10.416;2024-02-16T04:05:41;11.10;66.50
81524;DHT22;70954;49.500;10.416;2024-02-16T04:08:07;11.10;66.50
81524;DHT22;70954;49.500;10.416;2024-02-16T04:10:35;11.10;66.50
81524;DHT22;70954;49.500;10.416;2024-02-16T04:13:01;11.10;66.40
81524;DHT22;70954;49.500;10.416;2024-02-16T04:15:27;11.10;66.50
81524;DHT22;70954;49.500;10.416;2024-02-16T04:17:52;11.10;66.50
81524;DHT22;70954;49.500;10.416;2024-02-16T04:20:19;11.10;66.50
81524;DHT22;70954;49.500;10.416;2024-02-16T04:22:45;11.10;66.50
81524;DHT22;70954;49.500;10.416;2024-02-16T04:25:10;11.10;66.50
81524;DHT22;70954;49.500;10.416;2024-02-16T04:27:36;11.10;66.50
81524;DHT22;70954;49.500;10.416;2024-02-16T04:30:05;11.10;66.60
81524;DHT22;70954;49.500;10.416;2024-02-16T04:32:31;11.10;66.60
81524;DHT22;70954;49.500;10.416;2024-02-16T04:34:57;11.10;66.60
81524;DHT22;70954;49.500;10.416;2024-02-16T04:37:23;11.10;66.60
81524;DHT22;70954;49.500;10.416;2024-02-16T04:39:49;11.10;66.60
81524;DHT22;70954;49.500;10.416;2024-02-16T04:42:15;11.10;66.60
81524;DHT22;70954;49.500;10.416;2024-02-16T04:44:42;11.10;66.50
81524;DHT22;70954;49.500;10.416;2024-02-16T04:47:08;11.10;66.50
81524;DHT22;70954;49.500;10.416;2024-02-16T04:49:33;11.10;66.50
81524;DHT22;70954;49.500;10.416;2024-02-16T04:51:59;11.10;66.50
81524;DHT22;70954;49.500;10.416;2024-02-16T04:54:24;11.10;66.50
81524;DHT22;70954;49.500;10.416;2024-02-16T04:56:50;11.10;66.60
81524;DHT22;70954;49.500;10.416;2024-02-16T04:59:17;11.10;66.60
81524;DHT22;70954;49.500;10.416;2024-02-16T05:01:45;11.10;66.60
81524;DHT22;70954;49.500;10.416;2024-02-16T05:04:11;11.10;66.60
81524;DHT22;70954;49.500;10.416;2024-02-16T05:06:40;11.10;66.70
81524;DHT22;70954;49.500;10.416;2024-02-16T05:09:05;11.00;66.70
81524;DHT22;70954;49.500;10.416;2024-02-16T05:11:32;11.10;66.70
81524;DHT22;70954;49.500;10.416;2024-02-16T05:13:58;11.10;66.70
81524;DHT22;70954;49.500;10.416;2024-02-16T05:16:23;11.10;66.70
81524;DHT22;70954;49.500;10.416;2024-02-16T05:18:49;11.10;66.60
81524;DHT22;70954;49.500;10.416;2024-02-16T05:21:14;11.10;66.60
81524;DHT22;70954;49.500;10.416;2024-02-16T05:23:40;11.10;66.70
81524;DHT22;70954;49.500;10.416;2024-02-16T05:26:05;11.00;66.70
81524;DHT22;70954;49.500;10.416;2024-02-16T05:28:30;11.00;66.60
81524;DHT22;70954;49.500;10.416;2024-02-16T05:30:57;11.10;66.70
81524;DHT22;70954;49.500;10.416;2024-02-16T05:33:23;11.10;66.70
81524;DHT22;70954;49.500;10.416;2024-02-16T05:35:48;11.10;66.70
81524;DHT22;70954;49.500;10.416;2024-02-16T05:38:14;11.00;66.70
81524;DHT22;70954;49.500;10.416;2024-02-16T05:40:41;11.00;66.70
81524;DHT22;70954;49.500;10.416;2024-02-16T05:43:06;11.00;66.70
81524;DHT22;70954;49.500;10.416;2024-02-16T05:45:31;11.00;66.70
81524;DHT22;70954;49.500;10.416;2024-02-16T05:47:59;11.00;66.70
81524;DHT22;70954;49.500;10.416;2024-02-16T05:50:25;11.00;66.70
81524;DHT22;70954;49.500;10.416;2024-02-16T05:52:50;11.00;66.70
81524;DHT22;70954;49.500;10.416;2024-02-16T05:55:15;11.00;66.70
81524;DHT22;70954;49.500;10.416;2024-02-16T05:57:41;11.00;66.80
81524;DHT22;70954;49.500;10.416;2024-02-16T06:00:08;11.00;66.80
81524;DHT22;70954;49.500;10.416;2024-02-16T06:02:34;11.00;66.90
81524;DHT22;70954;49.500;10.416;2024-02-16T06:05:00;11.00;66.90
81524;DHT22;70954;49.500;10.416;2024-02-16T06:07:26;11.00;66.90
81524;DHT22;70954;49.500;10.416;2024-02-16T06:09:52;11.00;66.90
81524;DHT22;70954;49.500;10.416;2024-02-16T06:12:17;11.00;66.90
81524;DHT22;70954;49.500;10.416;2024-02-16T06:14:43;11.00;66.90
81524;DHT22;70954;49.500;10.416;2024-02-16T06:17:08;11.00;66.80
81524;DHT22;70954;49.500;10.416;2024-02-16T06:19:34;10.90;66.90
81524;DHT22;70954;49.500;10.416;2024-02-16T06:22:00;10.90;66.90
81524;DHT22;70954;49.500;10.416;2024-02-16T06:24:25;11.00;66.90
81524;DHT22;70954;49.500;10.416;2024-02-16T06:26:51;10.90;67.00
81524;DHT22;70954;49.500;10.416;2024-02-16T06:29:17;10.90;67.00
81524;DHT22;70954;49.500;10.416;2024-02-16T06:31:42;10.90;67.10
81524;DHT22;70954;49.500;10.416;2024-02-16T06:34:08;10.90;67.10
81524;DHT22;70954;49.500;10.416;2024-02-16T06:36:34;10.90;67.10
81524;DHT22;70954;49.500;10.416;2024-02-16T06:39:00;10.90;67.20
81524;DHT22;70954;49.500;10.416;2024-02-16T06:41:25;10.90;67.10
81524;DHT22;70954;49.500;10.416;2024-02-16T06:43:51;10.90;67.10
81524;DHT22;70954;49.500;10.416;2024-02-16T06:46:16;10.90;67.20
81524;DHT22;70954;49.500;10.416;2024-02-16T06:48:42;10.90;67.10
81524;DHT22;70954;49.500;10.416;2024-02-16T06:51:07;10.90;67.20
81524;DHT22;70954;49.500;10.416;2024-02-16T06:53:33;10.90;67.20
81524;DHT22;70954;49.500;10.416;2024-02-16T06:55:58;10.90;67.30
81524;DHT22;70954;49.500;10.416;2024-02-16T06:58:23;10.90;67.40
81524;DHT22;70954;49.500;10.416;2024-02-16T07:00:49;10.90;67.40
81524;DHT22;70954;49.500;10.416;2024-02-16T07:03:14;10.90;67.50
81524;DHT22;70954;49.500;10.416;2024-02-16T07:05:40;10.90;67.50
81524;DHT22;70954;49.500;10.416;2024-02-16T07:08:06;10.90;67.50
81524;DHT22;70954;49.500;10.416;2024-02-16T07:10:31;10.90;67.50
81524;DHT22;70954;49.500;10.416;2024-02-16T07:12:57;10.90;67.60
81524;DHT22;70954;49.500;10.416;2024-02-16T07:15:22;10.90;67.60
81524;DHT22;70954;49.500;10.416;2024-02-16T07:17:47;10.90;67.70
81524;DHT22;70954;49.500;10.416;2024-02-16T07:20:13;10.90;67.70
81524;DHT22;70954;49.500;10.416;2024-02-16T07:22:38;11.00;67.60
81524;DHT22;70954;49.500;10.416;2024-02-16T07:25:04;11.00;67.60
81524;DHT22;70954;49.500;10.416;2024-02-16T07:27:30;11.00;67.70
81524;DHT22;70954;49.500;10.416;2024-02-16T07:29:55;11.00;67.70
81524;DHT22;70954;49.500;10.416;2024-02-16T07:32:20;11.00;67.70
81524;DHT22;70954;49.500;10.416;2024-02-16T07:34:46;11.00;67.80
81524;DHT22;70954;49.500;10.416;2024-02-16T07:37:12;11.00;67.80
81524;DHT22;70954;49.500;10.416;2024-02-16T07:39:38;11.10;67.80
81524;DHT22;70954;49.500;10.416;2024-02-16T07:42:03;11.10;67.80
81524;DHT22;70954;49.500;10.416;2024-02-16T07:44:28;11.10;67.90
81524;DHT22;70954;49.500;10.416;2024-02-16T07:46:54;11.10;67.90
81524;DHT22;70954;49.500;10.416;2024-02-16T07:49:19;11.10;67.90
81524;DHT22;70954;49.500;10.416;2024-02-16T07:51:45;11.20;67.90
81524;DHT22;70954;49.500;10.416;2024-02-16T07:54:10;11.30;67.90
81524;DHT22;70954;49.500;10.416;2024-02-16T07:56:36;11.30;67.90
81524;DHT22;70954;49.500;10.416;2024-02-16T07:59:01;11.30;68.00
81524;DHT22;70954;49.500;10.416;2024-02-16T08:01:26;11.30;68.00
81524;DHT22;70954;49.500;10.416;2024-02-16T08:03:52;11.40;68.00
81524;DHT22;70954;49.500;10.416;2024-02-16T08:06:17;11.40;67.90
81524;DHT22;70954;49.500;10.416;2024-02-16T08:08:43;11.50;67.80
81524;DHT22;70954;49.500;10.416;2024-02-16T08:11:08;11.50;67.70
81524;DHT22;70954;49.500;10.416;2024-02-16T08:13:33;11.50;67.70
81524;DHT22;70954;49.500;10.416;2024-02-16T08:15:59;11.50;67.60
81524;DHT22;70954;49.500;10.416;2024-02-16T08:18:24;11.50;67.50
81524;DHT22;70954;49.500;10.416;2024-02-16T08:20:50;11.60;67.50
81524;DHT22;70954;49.500;10.416;2024-02-16T08:23:15;11.60;67.40
81524;DHT22;70954;49.500;10.416;2024-02-16T08:25:41;11.70;67.30
81524;DHT22;70954;49.500;10.416;2024-02-16T08:28:06;11.70;67.30
81524;DHT22;70954;49.500;10.416;2024-02-16T08:30:31;11.70;67.20
81524;DHT22;70954;49.500;10.416;2024-02-16T08:32:57;11.70;67.20
81524;DHT22;70954;49.500;10.416;2024-02-16T08:35:22;11.70;67.20
81524;DHT22;70954;49.500;10.416;2024-02-16T08:37:48;11.70;67.10
81524;DHT22;70954;49.500;10.416;2024-02-16T08:40:13;11.70;67.10
81524;DHT22;70954;49.500;10.416;2024-02-16T08:42:39;11.70;67.20
81524;DHT22;70954;49.500;10.416;2024-02-16T08:45:04;11.70;67.30
81524;DHT22;70954;49.500;10.416;2024-02-16T08:47:30;11.70;67.50
81524;DHT22;70954;49.500;10.416;2024-02-16T08:49:55;11.70;67.60
81524;DHT22;70954;49.500;10.416;2024-02-16T08:52:20;11.70;67.60
81524;DHT22;70954;49.500;10.416;2024-02-16T08:54:46;11.80;67.70
81524;DHT22;70954;49.500;10.416;2024-02-16T08:57:11;11.80;67.80
81524;DHT22;70954;49.500;10.416;2024-02-16T08:59:37;11.90;67.90
81524;DHT22;70954;49.500;10.416;2024-02-16T09:02:02;11.90;68.00
81524;DHT22;70954;49.500;10.416;2024-02-16T09:04:28;11.90;68.00
81524;DHT22;70954;49.500;10.416;2024-02-16T09:06:53;12.00;68.10
81524;DHT22;70954;49.500;10.416;2024-02-16T09:09:19;12.00;68.00
81524;DHT22;70954;49.500;10.416;2024-02-16T09:11:44;12.10;68.00
81524;DHT22;70954;49.500;10.416;2024-02-16T09:14:10;12.20;68.00
81524;DHT22;70954;49.500;10.416;2024-02-16T09:16:35;12.20;68.20
81524;DHT22;70954;49.500;10.416;2024-02-16T09:19:01;12.30;68.20
81524;DHT22;70954;49.500;10.416;2024-02-16T09:21:26;12.50;68.20
81524;DHT22;70954;49.500;10.416;2024-02-16T09:23:52;12.50;68.10
81524;DHT22;70954;49.500;10.416;2024-02-16T09:26:17;12.50;68.10
81524;DHT22;70954;49.500;10.416;2024-02-16T09:28:43;12.70;68.10
81524;DHT22;70954;49.500;10.416;2024-02-16T09:31:08;12.80;68.00
81524;DHT22;70954;49.500;10.416;2024-02-16T09:33:34;12.90;67.90
81524;DHT22;70954;49.500;10.416;2024-02-16T09:35:59;13.00;67.70
81524;DHT22;70954;49.500;10.416;2024-02-16T09:38:25;13.10;67.50
81524;DHT22;70954;49.500;10.416;2024-02-16T09:40:51;13.10;67.30
81524;DHT22;70954;49.500;10.416;2024-02-16T09:43:24;13.20;67.10
81524;DHT22;70954;49.500;10.416;2024-02-16T09:45:53;13.30;66.70
81524;DHT22;70954;49.500;10.416;2024-02-16T09:48:18;13.40;66.80
81524;DHT22;70954;49.500;10.416;2024-02-16T09:50:45;13.40;66.80
81524;DHT22;70954;49.500;10.416;2024-02-16T09:53:12;13.50;66.70
81524;DHT22;70954;49.500;10.416;2024-02-16T09:55:38;13.60;66.60
81524;DHT22;70954;49.500;10.416;2024-02-16T09:58:04;13.70;66.50
81524;DHT22;70954;49.500;10.416;2024-02-16T10:00:29;13.80;66.40
81524;DHT22;70954;49.500;10.416;2024-02-16T10:02:54;13.90;66.30
81524;DHT22;70954;49.500;10.416;2024-02-16T10:05:21;13.90;66.50
81524;DHT22;70954;49.500;10.416;2024-02-16T10:07:47;14.00;66.50
81524;DHT22;70954;49.500;10.416;2024-02-16T10:10:23;14.10;66.50
81524;DHT22;70954;49.500;10.416;2024-02-16T10:12:48;14.20;66.00
81524;DHT22;70954;49.500;10.416;2024-02-16T10:15:20;14.30;66.20
81524;DHT22;70954;49.500;10.416;2024-02-16T10:20:28;14.60;65.50
81524;DHT22;70954;49.500;10.416;2024-02-16T10:23:08;14.70;65.60
81524;DHT22;70954;49.500;10.416;2024-02-16T10:25:38;14.80;64.90
81524;DHT22;70954;49.500;10.416;2024-02-16T10:28:09;14.90;65.40
81524;DHT22;70954;49.500;10.416;2024-02-16T10:30:36;15.00;64.90
81524;DHT22;70954;49.500;10.416;2024-02-16T10:33:02;15.10;65.00
81524;DHT22;70954;49.500;10.416;2024-02-16T10:35:30;15.30;64.30
81524;DHT22;70954;49.500;10.416;2024-02-16T10:37:55;15.40;64.20
81524;DHT22;70954;49.500;10.416;2024-02-16T10:40:22;15.40;64.00
81524;DHT22;70954;49.500;10.416;2024-02-16T10:42:50;15.50;63.70
81524;DHT22;70954;49.500;10.416;2024-02-16T10:45:15;15.60;63.40
81524;DHT22;70954;49.500;10.416;2024-02-16T10:47:42;15.70;63.30
81524;DHT22;70954;49.500;10.416;2024-02-16T10:50:07;15.80;63.00
81524;DHT22;70954;49.500;10.416;2024-02-16T10:52:34;15.80;62.80
81524;DHT22;70954;49.500;10.416;2024-02-16T10:55:00;15.90;62.50
81524;DHT22;70954;49.500;10.416;2024-02-16T10:57:26;16.00;62.30
81524;DHT22;70954;49.500;10.416;2024-02-16T10:59:53;16.00;62.30
81524;DHT22;70954;49.500;10.416;2024-02-16T11:02:18;16.00;62.10
81524;DHT22;70954;49.500;10.416;2024-02-16T11:04:46;16.10;61.90
81524;DHT22;70954;49.500;10.416;2024-02-16T11:07:19;16.10;61.50
81524;DHT22;70954;49.500;10.416;2024-02-16T11:09:45;16.10;60.80
81524;DHT22;70954;49.500;10.416;2024-02-16T11:12:15;16.20;61.00
81524;DHT22;70954;49.500;10.416;2024-02-16T11:14:47;16.20;60.90
81524;DHT22;70954;49.500;10.416;2024-02-16T11:17:14;16.20;60.70
81524;DHT22;70954;49.500;10.416;2024-02-16T11:19:41;16.20;61.10
81524;DHT22;70954;49.500;10.416;2024-02-16T11:22:07;16.30;61.20
81524;DHT22;70954;49.500;10.416;2024-02-16T11:24:34;16.40;60.70
81524;DHT22;70954;49.500;10.416;2024-02-16T11:27:04;16.40;60.60
81524;DHT22;70954;49.500;10.416;2024-02-16T11:29:36;16.40;60.40
81524;DHT22;70954;49.500;10.416;2024-02-16T11:32:02;16.40;60.40
81524;DHT22;70954;49.500;10.416;2024-02-16T11:34:28;16.50;60.60
81524;DHT22;70954;49.500;10.416;2024-02-16T11:37:01;16.50;60.70
81524;DHT22;70954;49.500;10.416;2024-02-16T11:39:27;16.60;60.50
81524;DHT22;70954;49.500;10.416;2024-02-16T11:42:04;16.60;60.70
81524;DHT22;70954;49.500;10.416;2024-02-16T11:44:34;16.70;60.40
81524;DHT22;70954;49.500;10.416;2024-02-16T11:47:01;16.70;60.40
81524;DHT22;70954;49.500;10.416;2024-02-16T11:49:28;16.80;60.40
81524;DHT22;70954;49.500;10.416;2024-02-16T11:51:54;16.90;60.40
81524;DHT22;70954;49.500;10.416;2024-02-16T11:54:19;16.90;60.00
81524;DHT22;70954;49.500;10.416;2024-02-16T11:56:49;17.00;60.00
81524;DHT22;70954;49.500;10.416;2024-02-16T11:59:15;17.00;59.90
81524;DHT22;70954;49.500;10.416;2024-02-16T12:01:51;17.10;59.80
81524;DHT22;70954;49.500;10.416;2024-02-16T12:04:27;17.20;59.30
81524;DHT22;70954;49.500;10.416;2024-02-16T12:09:21;17.30;59.50
81524;DHT22;70954;49.500;10.416;2024-02-16T12:11:50;17.40;58.90
81524;DHT22;70954;49.500;10.416;2024-02-16T12:14:17;17.40;58.30
81524;DHT22;70954;49.500;10.416;2024-02-16T12:16:42;17.40;58.20
81524;DHT22;70954;49.500;10.416;2024-02-16T12:19:08;17.40;58.20
81524;DHT22;70954;49.500;10.416;2024-02-16T12:21:33;17.50;58.00
81524;DHT22;70954;49.500;10.416;2024-02-16T12:23:59;17.50;57.80
81524;DHT22;70954;49.500;10.416;2024-02-16T12:26:24;17.50;57.60
81524;DHT22;70954;49.500;10.416;2024-02-16T12:28:50;17.50;57.20
81524;DHT22;70954;49.500;10.416;2024-02-16T12:31:19;17.50;57.50
81524;DHT22;70954;49.500;10.416;2024-02-16T12:33:45;17.50;57.20
81524;DHT22;70954;49.500;10.416;2024-02-16T12:36:10;17.50;57.40
81524;DHT22;70954;49.500;10.416;2024-02-16T12:38:36;17.40;57.00
81524;DHT22;70954;49.500;10.416;2024-02-16T12:41:01;17.50;57.30
81524;DHT22;70954;49.500;10.416;2024-02-16T12:43:27;17.50;57.50
81524;DHT22;70954;49.500;10.416;2024-02-16T12:45:52;17.50;57.60
81524;DHT22;70954;49.500;10.416;2024-02-16T12:48:18;17.50;57.20
81524;DHT22;70954;49.500;10.416;2024-02-16T12:50:43;17.50;56.80
81524;DHT22;70954;49.500;10.416;2024-02-16T12:53:09;17.50;56.40
81524;DHT22;70954;49.500;10.416;2024-02-16T12:55:34;17.50;56.50
81524;DHT22;70954;49.500;10.416;2024-02-16T12:58:00;17.50;56.60
81524;DHT22;70954;49.500;10.416;2024-02-16T13:00:25;17.50;55.80
81524;DHT22;70954;49.500;10.416;2024-02-16T13:02:51;17.50;56.10
81524;DHT22;70954;49.500;10.416;2024-02-16T13:05:16;17.50;55.80
81524;DHT22;70954;49.500;10.416;2024-02-16T13:07:41;17.50;56.30
81524;DHT22;70954;49.500;10.416;2024-02-16T13:10:08;17.50;55.90
81524;DHT22;70954;49.500;10.416;2024-02-16T13:12:34;17.50;56.10
81524;DHT22;70954;49.500;10.416;2024-02-16T13:14:59;17.60;55.90
81524;DHT22;70954;49.500;10.416;2024-02-16T13:17:25;17.60;55.20
81524;DHT22;70954;49.500;10.416;2024-02-16T13:19:50;17.60;55.30
81524;DHT22;70954;49.500;10.416;2024-02-16T13:22:15;17.60;55.50
81524;DHT22;70954;49.500;10.416;2024-02-16T13:24:41;17.70;54.50
81524;DHT22;70954;49.500;10.416;2024-02-16T13:27:07;17.70;54.20
81524;DHT22;70954;49.500;10.416;2024-02-16T13:29:32;17.80;54.40
81524;DHT22;70954;49.500;10.416;2024-02-16T13:31:58;17.80;54.40
81524;DHT22;70954;49.500;10.416;2024-02-16T13:34:23;17.80;53.50
81524;DHT22;70954;49.500;10.416;2024-02-16T13:36:49;17.80;53.80
81524;DHT22;70954;49.500;10.416;2024-02-16T13:39:14;17.80;54.00
81524;DHT22;70954;49.500;10.416;2024-02-16T13:41:40;17.80;54.10
81524;DHT22;70954;49.500;10.416;2024-02-16T13:44:05;17.90;54.20
81524;DHT22;70954;49.500;10.416;2024-02-16T13:46:31;17.90;54.00
81524;DHT22;70954;49.500;10.416;2024-02-16T13:48:56;18.00;54.00
81524;DHT22;70954;49.500;10.416;2024-02-16T13:51:22;18.00;54.30
81524;DHT22;70954;49.500;10.416;2024-02-16T13:53:47;18.00;54.20
81524;DHT22;70954;49.500;10.416;2024-02-16T13:56:13;18.00;54.30
81524;DHT22;70954;49.500;10.416;2024-02-16T13:58:38;18.00;54.00
81524;DHT22;70954;49.500;10.416;2024-02-16T14:01:04;18.00;54.20
81524;DHT22;70954;49.500;10.416;2024-02-16T14:03:30;18.00;54.00
81524;DHT22;70954;49.500;10.416;2024-02-16T14:05:57;18.00;54.10
81524;DHT22;70954;49.500;10.416;2024-02-16T14:08:23;18.00;54.30
81524;DHT22;70954;49.500;10.416;2024-02-16T14:10:48;18.00;54.20
81524;DHT22;70954;49.500;10.416;2024-02-16T14:13:14;18.10;54.20
81524;DHT22;70954;49.500;10.416;2024-02-16T14:15:39;18.10;54.00
81524;DHT22;70954;49.500;10.416;2024-02-16T14:18:05;18.10;54.00
81524;DHT22;70954;49.500;10.416;2024-02-16T14:20:30;18.10;53.90
81524;DHT22;70954;49.500;10.416;2024-02-16T14:22:55;18.10;53.70
81524;DHT22;70954;49.500;10.416;2024-02-16T14:25:22;18.10;53.40
81524;DHT22;70954;49.500;10.416;2024-02-16T14:27:47;18.10;53.30
81524;DHT22;70954;49.500;10.416;2024-02-16T14:30:13;18.00;53.30
81524;DHT22;70954;49.500;10.416;2024-02-16T14:32:38;18.00;53.20
81524;DHT22;70954;49.500;10.416;2024-02-16T14:35:04;18.00;53.10
81524;DHT22;70954;49.500;10.416;2024-02-16T14:37:30;17.80;53.40
81524;DHT22;70954;49.500;10.416;2024-02-16T14:39:55;17.80;53.50
81524;DHT22;70954;49.500;10.416;2024-02-16T14:42:20;17.80;53.60
81524;DHT22;70954;49.500;10.416;2024-02-16T14:44:46;17.70;53.80
81524;DHT22;70954;49.500;10.416;2024-02-16T14:47:11;17.60;54.00
81524;DHT22;70954;49.500;10.416;2024-02-16T14:49:37;17.60;53.80
81524;DHT22;70954;49.500;10.416;2024-02-16T14:52:02;17.60;54.00
81524;DHT22;70954;49.500;10.416;2024-02-16T14:54:28;17.50;54.10
81524;DHT22;70954;49.500;10.416;2024-02-16T14:56:53;17.50;54.20
81524;DHT22;70954;49.500;10.416;2024-02-16T14:59:19;17.50;54.50
81524;DHT22;70954;49.500;10.416;2024-02-16T15:01:44;17.40;54.50
81524;DHT22;70954;49.500;10.416;2024-02-16T15:04:10;17.40;54.40
81524;DHT22;70954;49.500;10.416;2024-02-16T15:06:35;17.40;54.20
81524;DHT22;70954;49.500;10.416;2024-02-16T15:09:01;17.30;54.40
81524;DHT22;70954;49.500;10.416;2024-02-16T15:11:26;17.20;54.50